Terminal Aerodrome Forecast
Issued by NWS Twin Cities, MN

Home | Current Version | Previous Version | Text Only | Print | Product List | Glossary On
Versions: 1 2 3 4 5 6 7 8 9 10 11 12 13 14 15 16 17 18 19 20 21 22 23 24 25 26
000
FTUS43 KMPX 282047 AAA
TAFMSP
TAF AMD
KMSP 282047Z 2821/2924 18016G24KT P6SM FEW070 SCT250
     FM290100 17010KT P6SM BKN250
     FM290500 15006KT P6SM -SHRA OVC060
     FM290900 16004KT P6SM OVC020
     FM291700 31010KT 5SM -TSRA BR OVC020CB=

USA.gov is the U.S. government's official web portal to all federal, state and local government web resources and services.